Historyczne dane pomiarowe

Dodano dane terminowe – wersja testowa.

Dane z okresu 1951-2018

Wersja bazy: 1.29 [2019-01-10, lista zmian], aktualizacja planowana na 2019-02-07

Dane meteo z obszaru Polski uzyskane na podstawie danych udostępnionych przez Instytut Meteorologii i Gospodarki Wodnej – Państwowy Instytut Badawczy.

 

Wybierz Datę:    

       

TemperaturaWilgotnośćWiatrCiśnienieOpadyŚniegCzas trwania zjawisk
 Stacja t tx tn tng RH VA  wxwx mslp ppp RRR   cm mm wxwxwxwxwxwxwx
1990-12-13 0.7 2.5 -0.5 -2.1 92.8- 8.0 1.3---- 0.9------------
1990-12-13------------ 0.9--x---------
1990-12-14 0.4 1.5 -0.6 -1.6 84.8- 7.7 4.0---- 0.6------------
1990-12-14------------ 0.6--x---------
1990-12-15 -0.5 1.0 -1.4 -2.6 90.3- 8.0 1.3---- 0.0-- 1---------
1990-12-16 0.0 1.5 -0.9 -2.1 90.0- 8.0 1.7---- 0.4------------
1990-12-16------------ 0.4--x---------
1990-12-17 -1.3 2.5 -2.5 -2.6 87.0- 7.3 2.7---- 0.0------------
1990-12-18 -0.7 0.5 -2.5 -3.1 93.3- 8.0 3.0---- 0.0------------
1990-12-19 -0.6 1.0 -2.4 -3.6 87.3- 8.0 2.7---- 0.5------------
1990-12-19------------ 0.5--x---------
1990-12-20 -0.6 1.0 -2.4 -3.6 83.8- 6.7 4.0---- 0.1-- 1---------
1990-12-20------------ 0.1--x---------
1990-12-21 1.1 2.8 -0.9 -2.1 87.0- 2.7 3.3---- 3.2-- 1---------
1990-12-21------------ 3.2--x---------
1990-12-22 0.0 3.4 -1.4 -4.0 93.0- 8.0 0.0---- 0.1------------
1990-12-22------------ 0.1--x---------
1990-12-23 1.4 4.0 -0.4 -1.6 84.0- 7.3 1.7---- 0.0------------
1990-12-24 -1.2 2.5 -3.3 -5.5 66.0- 0.0 4.7---- 0.0------------
1990-12-25 -1.4 1.5 -2.4 -4.0 57.8- 0.0 8.3---- 0.0------------
1990-12-26 -1.4 2.5 -2.5 -7.0 72.8- 6.0 3.3---- 0.0------------
1990-12-27 3.9 7.6 -1.6 -4.0 75.3- 5.0 4.0---- 0.9------------
1990-12-27------------ 0.9--x---------
1990-12-28 2.0 4.5 -0.9 -3.6 76.3- 2.7 3.3---- 0.0------------
1990-12-29 3.1 6.5 -1.1 -3.1 76.8- 7.7 3.0---- 4.4------------
1990-12-29------------ 4.4--x---------
1990-12-30 6.1 12.1 2.1 1.6 79.0- 3.7 4.0---- 0.0------------
1990-12-31 2.7 6.6 0.1 -3.1 87.0- 6.0 1.0---- 2.3------------
1990-12-31------------ 2.3--x---------
1991-01-01 3.3 6.0 0.0 -2.6 88.3- 8.0 2.7---- 0.0------------
1991-01-02 2.8 5.5 -1.4 -3.6 80.3- 8.0 3.3---- 2.3------------
1991-01-03 7.5 10.6 4.6 2.9 85.8- 8.0 2.3---- 1.8------------
1991-01-04 7.0 11.1 5.5 2.9 90.3- 7.0 1.7---- 1.2------------
1991-01-05 3.9 6.6 1.0 -1.6 76.8- 4.7 3.3---- 1.5------------
1991-01-06 4.6 7.1 0.5 -1.6 69.5- 7.3 5.7---- 0.0------------
1991-01-07 4.3 7.1 -0.5 -2.6 73.5- 2.7 3.3---- 0.0------------
1991-01-08 5.6 9.1 0.5 -4.0 74.3- 5.0 3.7---- 0.0------------
1991-01-09 7.4 13.0 3.6 0.9 69.8- 7.3 4.3---- 0.1------------
1991-01-10 10.3 16.1 5.7 2.1 73.8- 7.7 6.3---- 6.5------------
1991-01-11 7.3 15.1 4.6 3.1 76.5- 6.0 2.0---- 0.0------------
367.4 ms

 

Źródłem pochodzenia danych jest Instytut Meteorologii i Gospodarki Wodnej – Państwowy Instytut Badawczy. Dane Instytutu Meteorologii i Gospodarki Wodnej – Państwowego Instytutu Badawczego zostały przetworzone.

Dane źródłowe można odnaleźć na stronie https://dane.imgw.pl